sensor_id;sensor_type;location;lat;lon;timestamp;P1;durP1;ratioP1;P2;durP2;ratioP2
7324;SDS011;3703;48.016;7.802;2022-10-16T00:02:35;1.70;;;1.60;;
7324;SDS011;3703;48.016;7.802;2022-10-16T00:05:23;5.00;;;1.80;;
7324;SDS011;3703;48.016;7.802;2022-10-16T00:08:12;2.27;;;1.90;;
7324;SDS011;3703;48.016;7.802;2022-10-16T00:11:00;2.73;;;2.17;;
7324;SDS011;3703;48.016;7.802;2022-10-16T00:13:50;4.17;;;2.57;;
7324;SDS011;3703;48.016;7.802;2022-10-16T00:16:42;2.57;;;2.20;;
7324;SDS011;3703;48.016;7.802;2022-10-16T00:19:29;4.80;;;2.33;;
7324;SDS011;3703;48.016;7.802;2022-10-16T00:22:17;4.23;;;2.00;;
7324;SDS011;3703;48.016;7.802;2022-10-16T00:25:06;2.60;;;2.10;;
7324;SDS011;3703;48.016;7.802;2022-10-16T00:27:54;4.83;;;2.20;;
7324;SDS011;3703;48.016;7.802;2022-10-16T00:30:42;4.03;;;2.60;;
7324;SDS011;3703;48.016;7.802;2022-10-16T00:33:29;3.23;;;2.10;;
7324;SDS011;3703;48.016;7.802;2022-10-16T00:36:17;2.90;;;2.27;;
7324;SDS011;3703;48.016;7.802;2022-10-16T00:39:07;5.03;;;2.30;;
7324;SDS011;3703;48.016;7.802;2022-10-16T00:41:56;3.60;;;2.10;;
7324;SDS011;3703;48.016;7.802;2022-10-16T00:44:45;3.03;;;2.20;;
7324;SDS011;3703;48.016;7.802;2022-10-16T00:47:39;2.50;;;2.30;;
7324;SDS011;3703;48.016;7.802;2022-10-16T00:50:33;3.83;;;2.80;;
7324;SDS011;3703;48.016;7.802;2022-10-16T00:53:21;3.73;;;2.50;;
7324;SDS011;3703;48.016;7.802;2022-10-16T00:56:08;3.23;;;2.30;;
7324;SDS011;3703;48.016;7.802;2022-10-16T00:58:57;5.57;;;2.20;;
7324;SDS011;3703;48.016;7.802;2022-10-16T01:01:48;2.43;;;2.20;;
7324;SDS011;3703;48.016;7.802;2022-10-16T01:04:37;5.13;;;2.37;;
7324;SDS011;3703;48.016;7.802;2022-10-16T01:07:30;4.13;;;2.10;;
7324;SDS011;3703;48.016;7.802;2022-10-16T01:10:30;3.53;;;2.10;;
7324;SDS011;3703;48.016;7.802;2022-10-16T01:13:25;5.33;;;2.50;;
7324;SDS011;3703;48.016;7.802;2022-10-16T01:16:20;3.20;;;2.33;;
7324;SDS011;3703;48.016;7.802;2022-10-16T01:19:20;2.13;;;2.00;;
7324;SDS011;3703;48.016;7.802;2022-10-16T01:22:21;5.17;;;2.40;;
7324;SDS011;3703;48.016;7.802;2022-10-16T01:25:22;4.17;;;2.33;;
7324;SDS011;3703;48.016;7.802;2022-10-16T01:28:22;6.00;;;2.10;;
7324;SDS011;3703;48.016;7.802;2022-10-16T01:31:16;3.10;;;2.50;;
7324;SDS011;3703;48.016;7.802;2022-10-16T01:34:08;2.80;;;2.53;;
7324;SDS011;3703;48.016;7.802;2022-10-16T01:37:04;4.23;;;2.30;;
7324;SDS011;3703;48.016;7.802;2022-10-16T01:39:58;8.40;;;2.30;;
7324;SDS011;3703;48.016;7.802;2022-10-16T01:42:48;3.60;;;1.80;;
7324;SDS011;3703;48.016;7.802;2022-10-16T01:45:41;2.80;;;2.30;;
7324;SDS011;3703;48.016;7.802;2022-10-16T01:48:31;2.70;;;2.00;;
7324;SDS011;3703;48.016;7.802;2022-10-16T01:51:21;3.63;;;1.80;;
7324;SDS011;3703;48.016;7.802;2022-10-16T01:54:10;2.07;;;1.87;;
7324;SDS011;3703;48.016;7.802;2022-10-16T01:57:01;4.70;;;1.80;;
7324;SDS011;3703;48.016;7.802;2022-10-16T01:59:51;2.60;;;1.60;;
7324;SDS011;3703;48.016;7.802;2022-10-16T02:02:46;4.43;;;2.00;;
7324;SDS011;3703;48.016;7.802;2022-10-16T02:05:37;3.77;;;1.30;;
7324;SDS011;3703;48.016;7.802;2022-10-16T02:08:28;1.87;;;1.77;;
7324;SDS011;3703;48.016;7.802;2022-10-16T02:11:17;2.87;;;1.60;;
7324;SDS011;3703;48.016;7.802;2022-10-16T02:14:05;3.63;;;2.40;;
7324;SDS011;3703;48.016;7.802;2022-10-16T02:16:54;4.43;;;1.50;;
7324;SDS011;3703;48.016;7.802;2022-10-16T02:19:43;6.20;;;1.50;;
7324;SDS011;3703;48.016;7.802;2022-10-16T02:22:33;2.87;;;1.80;;
7324;SDS011;3703;48.016;7.802;2022-10-16T02:25:26;2.20;;;2.00;;
7324;SDS011;3703;48.016;7.802;2022-10-16T02:28:17;2.93;;;1.70;;
7324;SDS011;3703;48.016;7.802;2022-10-16T02:31:11;3.47;;;1.90;;
7324;SDS011;3703;48.016;7.802;2022-10-16T02:34:05;2.80;;;1.60;;
7324;SDS011;3703;48.016;7.802;2022-10-16T02:36:55;3.90;;;2.63;;
7324;SDS011;3703;48.016;7.802;2022-10-16T02:39:45;2.30;;;2.00;;
7324;SDS011;3703;48.016;7.802;2022-10-16T02:42:33;2.17;;;1.60;;
7324;SDS011;3703;48.016;7.802;2022-10-16T02:45:22;1.97;;;1.77;;
7324;SDS011;3703;48.016;7.802;2022-10-16T02:48:10;2.30;;;2.10;;
7324;SDS011;3703;48.016;7.802;2022-10-16T02:50:58;3.07;;;1.70;;
7324;SDS011;3703;48.016;7.802;2022-10-16T02:53:46;2.27;;;2.03;;
7324;SDS011;3703;48.016;7.802;2022-10-16T02:56:34;3.63;;;2.23;;
7324;SDS011;3703;48.016;7.802;2022-10-16T02:59:21;4.67;;;2.17;;
7324;SDS011;3703;48.016;7.802;2022-10-16T03:02:09;1.87;;;1.77;;
7324;SDS011;3703;48.016;7.802;2022-10-16T03:04:57;3.03;;;1.57;;
7324;SDS011;3703;48.016;7.802;2022-10-16T03:07:44;2.30;;;2.10;;
7324;SDS011;3703;48.016;7.802;2022-10-16T03:10:33;1.80;;;1.70;;
7324;SDS011;3703;48.016;7.802;2022-10-16T03:13:21;2.07;;;1.80;;
7324;SDS011;3703;48.016;7.802;2022-10-16T03:16:08;2.17;;;1.90;;
7324;SDS011;3703;48.016;7.802;2022-10-16T03:18:56;4.03;;;1.77;;
7324;SDS011;3703;48.016;7.802;2022-10-16T03:21:44;2.17;;;1.80;;
7324;SDS011;3703;48.016;7.802;2022-10-16T03:24:31;3.77;;;1.63;;
7324;SDS011;3703;48.016;7.802;2022-10-16T03:27:20;3.40;;;2.00;;
7324;SDS011;3703;48.016;7.802;2022-10-16T03:30:08;4.87;;;1.90;;
7324;SDS011;3703;48.016;7.802;2022-10-16T03:32:57;1.90;;;1.70;;
7324;SDS011;3703;48.016;7.802;2022-10-16T03:35:50;3.67;;;1.70;;
7324;SDS011;3703;48.016;7.802;2022-10-16T03:38:39;4.10;;;1.70;;
7324;SDS011;3703;48.016;7.802;2022-10-16T03:41:27;3.97;;;1.90;;
7324;SDS011;3703;48.016;7.802;2022-10-16T03:44:15;2.53;;;1.67;;
7324;SDS011;3703;48.016;7.802;2022-10-16T03:47:03;3.00;;;2.30;;
7324;SDS011;3703;48.016;7.802;2022-10-16T03:49:50;1.90;;;1.70;;
7324;SDS011;3703;48.016;7.802;2022-10-16T03:52:38;1.97;;;1.70;;
7324;SDS011;3703;48.016;7.802;2022-10-16T03:55:25;1.90;;;1.70;;
7324;SDS011;3703;48.016;7.802;2022-10-16T03:58:13;2.50;;;1.53;;
7324;SDS011;3703;48.016;7.802;2022-10-16T04:01:02;2.53;;;1.30;;
7324;SDS011;3703;48.016;7.802;2022-10-16T04:03:49;1.93;;;1.83;;
7324;SDS011;3703;48.016;7.802;2022-10-16T04:06:37;5.70;;;1.60;;
7324;SDS011;3703;48.016;7.802;2022-10-16T04:09:24;3.70;;;1.47;;
7324;SDS011;3703;48.016;7.802;2022-10-16T04:12:12;2.27;;;1.60;;
7324;SDS011;3703;48.016;7.802;2022-10-16T04:15:00;2.03;;;1.83;;
7324;SDS011;3703;48.016;7.802;2022-10-16T04:17:49;1.70;;;1.60;;
7324;SDS011;3703;48.016;7.802;2022-10-16T04:20:36;4.33;;;2.50;;
7324;SDS011;3703;48.016;7.802;2022-10-16T04:23:24;2.10;;;1.90;;
7324;SDS011;3703;48.016;7.802;2022-10-16T04:26:11;2.40;;;1.53;;
7324;SDS011;3703;48.016;7.802;2022-10-16T04:28:59;2.43;;;1.40;;
7324;SDS011;3703;48.016;7.802;2022-10-16T04:31:46;2.00;;;1.80;;
7324;SDS011;3703;48.016;7.802;2022-10-16T04:34:35;2.37;;;1.83;;
7324;SDS011;3703;48.016;7.802;2022-10-16T04:37:23;3.17;;;1.60;;
7324;SDS011;3703;48.016;7.802;2022-10-16T04:40:11;1.50;;;1.40;;
7324;SDS011;3703;48.016;7.802;2022-10-16T04:42:59;2.37;;;1.40;;
7324;SDS011;3703;48.016;7.802;2022-10-16T04:45:47;2.30;;;1.50;;
7324;SDS011;3703;48.016;7.802;2022-10-16T04:48:36;1.63;;;1.53;;
7324;SDS011;3703;48.016;7.802;2022-10-16T04:51:25;2.43;;;1.77;;
7324;SDS011;3703;48.016;7.802;2022-10-16T04:54:13;1.73;;;1.63;;
7324;SDS011;3703;48.016;7.802;2022-10-16T04:57:01;4.70;;;1.70;;
7324;SDS011;3703;48.016;7.802;2022-10-16T04:59:50;3.17;;;1.73;;
7324;SDS011;3703;48.016;7.802;2022-10-16T05:02:37;1.93;;;1.77;;
7324;SDS011;3703;48.016;7.802;2022-10-16T05:05:25;3.80;;;1.80;;
7324;SDS011;3703;48.016;7.802;2022-10-16T05:08:14;1.77;;;1.67;;
7324;SDS011;3703;48.016;7.802;2022-10-16T05:11:03;3.93;;;1.50;;
7324;SDS011;3703;48.016;7.802;2022-10-16T05:13:50;3.00;;;1.50;;
7324;SDS011;3703;48.016;7.802;2022-10-16T05:16:38;3.27;;;2.90;;
7324;SDS011;3703;48.016;7.802;2022-10-16T05:19:25;8.17;;;2.40;;
7324;SDS011;3703;48.016;7.802;2022-10-16T05:22:13;4.47;;;2.00;;
7324;SDS011;3703;48.016;7.802;2022-10-16T05:25:02;5.13;;;1.97;;
7324;SDS011;3703;48.016;7.802;2022-10-16T05:27:50;7.23;;;2.20;;
7324;SDS011;3703;48.016;7.802;2022-10-16T05:30:38;5.40;;;2.00;;
7324;SDS011;3703;48.016;7.802;2022-10-16T05:33:25;2.10;;;1.97;;
7324;SDS011;3703;48.016;7.802;2022-10-16T05:36:13;4.67;;;2.40;;
7324;SDS011;3703;48.016;7.802;2022-10-16T05:39:01;3.80;;;2.10;;
7324;SDS011;3703;48.016;7.802;2022-10-16T05:41:50;2.33;;;2.13;;
7324;SDS011;3703;48.016;7.802;2022-10-16T05:44:38;3.40;;;1.90;;
7324;SDS011;3703;48.016;7.802;2022-10-16T05:47:25;6.60;;;2.43;;
7324;SDS011;3703;48.016;7.802;2022-10-16T05:50:13;3.23;;;2.10;;
7324;SDS011;3703;48.016;7.802;2022-10-16T05:53:01;2.47;;;2.20;;
7324;SDS011;3703;48.016;7.802;2022-10-16T05:55:51;3.53;;;2.30;;
7324;SDS011;3703;48.016;7.802;2022-10-16T05:58:41;2.60;;;2.30;;
7324;SDS011;3703;48.016;7.802;2022-10-16T06:01:29;2.80;;;2.10;;
7324;SDS011;3703;48.016;7.802;2022-10-16T06:04:17;2.90;;;2.30;;
7324;SDS011;3703;48.016;7.802;2022-10-16T06:07:04;5.60;;;2.37;;
7324;SDS011;3703;48.016;7.802;2022-10-16T06:09:52;3.53;;;2.30;;
7324;SDS011;3703;48.016;7.802;2022-10-16T06:12:40;3.10;;;2.00;;
7324;SDS011;3703;48.016;7.802;2022-10-16T06:15:29;3.67;;;2.17;;
7324;SDS011;3703;48.016;7.802;2022-10-16T06:18:16;3.63;;;2.47;;
7324;SDS011;3703;48.016;7.802;2022-10-16T06:21:06;2.30;;;2.10;;
7324;SDS011;3703;48.016;7.802;2022-10-16T06:23:56;3.17;;;2.17;;
7324;SDS011;3703;48.016;7.802;2022-10-16T06:26:44;3.33;;;2.33;;
7324;SDS011;3703;48.016;7.802;2022-10-16T06:29:31;3.37;;;2.10;;
7324;SDS011;3703;48.016;7.802;2022-10-16T06:32:20;4.27;;;2.67;;
7324;SDS011;3703;48.016;7.802;2022-10-16T06:35:08;7.40;;;2.20;;
7324;SDS011;3703;48.016;7.802;2022-10-16T06:37:55;5.33;;;2.60;;
7324;SDS011;3703;48.016;7.802;2022-10-16T06:40:43;6.53;;;3.27;;
7324;SDS011;3703;48.016;7.802;2022-10-16T06:43:31;8.17;;;2.80;;
7324;SDS011;3703;48.016;7.802;2022-10-16T06:46:21;6.93;;;2.47;;
7324;SDS011;3703;48.016;7.802;2022-10-16T06:49:11;4.17;;;2.70;;
7324;SDS011;3703;48.016;7.802;2022-10-16T06:52:01;3.00;;;2.70;;
7324;SDS011;3703;48.016;7.802;2022-10-16T06:54:49;4.30;;;3.10;;
7324;SDS011;3703;48.016;7.802;2022-10-16T06:57:36;4.90;;;3.00;;
7324;SDS011;3703;48.016;7.802;2022-10-16T07:00:24;4.87;;;2.87;;
7324;SDS011;3703;48.016;7.802;2022-10-16T07:03:12;3.23;;;2.77;;
7324;SDS011;3703;48.016;7.802;2022-10-16T07:06:02;4.63;;;2.60;;
7324;SDS011;3703;48.016;7.802;2022-10-16T07:08:52;4.33;;;2.47;;
7324;SDS011;3703;48.016;7.802;2022-10-16T07:11:40;7.23;;;2.20;;
7324;SDS011;3703;48.016;7.802;2022-10-16T07:14:28;4.73;;;2.60;;
7324;SDS011;3703;48.016;7.802;2022-10-16T07:17:16;2.63;;;2.17;;
7324;SDS011;3703;48.016;7.802;2022-10-16T07:20:04;5.10;;;2.60;;
7324;SDS011;3703;48.016;7.802;2022-10-16T07:22:54;2.90;;;2.40;;
7324;SDS011;3703;48.016;7.802;2022-10-16T07:25:42;6.40;;;2.70;;
7324;SDS011;3703;48.016;7.802;2022-10-16T07:28:29;6.13;;;2.40;;
7324;SDS011;3703;48.016;7.802;2022-10-16T07:31:18;3.60;;;2.63;;
7324;SDS011;3703;48.016;7.802;2022-10-16T07:34:07;6.53;;;2.77;;
7324;SDS011;3703;48.016;7.802;2022-10-16T07:36:55;4.80;;;2.73;;
7324;SDS011;3703;48.016;7.802;2022-10-16T07:39:44;4.20;;;3.37;;
7324;SDS011;3703;48.016;7.802;2022-10-16T07:42:31;8.17;;;4.37;;
7324;SDS011;3703;48.016;7.802;2022-10-16T07:45:19;8.27;;;4.53;;
7324;SDS011;3703;48.016;7.802;2022-10-16T07:48:06;6.73;;;3.57;;
7324;SDS011;3703;48.016;7.802;2022-10-16T07:50:56;7.17;;;3.90;;
7324;SDS011;3703;48.016;7.802;2022-10-16T07:53:45;7.27;;;4.60;;
7324;SDS011;3703;48.016;7.802;2022-10-16T07:56:35;5.90;;;3.07;;
7324;SDS011;3703;48.016;7.802;2022-10-16T07:59:22;5.50;;;2.70;;
7324;SDS011;3703;48.016;7.802;2022-10-16T08:02:10;5.20;;;3.20;;
7324;SDS011;3703;48.016;7.802;2022-10-16T08:04:57;3.00;;;2.43;;
7324;SDS011;3703;48.016;7.802;2022-10-16T08:07:47;5.40;;;2.30;;
7324;SDS011;3703;48.016;7.802;2022-10-16T08:10:35;3.80;;;2.83;;
7324;SDS011;3703;48.016;7.802;2022-10-16T08:13:25;6.00;;;2.60;;
7324;SDS011;3703;48.016;7.802;2022-10-16T08:16:12;4.23;;;2.40;;
7324;SDS011;3703;48.016;7.802;2022-10-16T08:19:00;4.03;;;2.40;;
7324;SDS011;3703;48.016;7.802;2022-10-16T08:21:48;5.20;;;2.80;;
7324;SDS011;3703;48.016;7.802;2022-10-16T08:24:35;4.97;;;2.73;;
7324;SDS011;3703;48.016;7.802;2022-10-16T08:27:23;2.90;;;2.07;;
7324;SDS011;3703;48.016;7.802;2022-10-16T08:30:13;4.43;;;1.93;;
7324;SDS011;3703;48.016;7.802;2022-10-16T08:33:01;3.10;;;2.20;;
7324;SDS011;3703;48.016;7.802;2022-10-16T08:35:52;4.80;;;2.13;;
7324;SDS011;3703;48.016;7.802;2022-10-16T08:38:40;2.30;;;2.07;;
7324;SDS011;3703;48.016;7.802;2022-10-16T08:41:32;3.93;;;2.07;;
7324;SDS011;3703;48.016;7.802;2022-10-16T08:48:22;3.73;;;1.80;;
7324;SDS011;3703;48.016;7.802;2022-10-16T08:51:18;2.57;;;2.23;;
7324;SDS011;3703;48.016;7.802;2022-10-16T08:54:14;3.23;;;1.80;;
7324;SDS011;3703;48.016;7.802;2022-10-16T08:57:13;6.53;;;2.23;;
7324;SDS011;3703;48.016;7.802;2022-10-16T09:00:05;3.77;;;2.30;;
7324;SDS011;3703;48.016;7.802;2022-10-16T09:03:06;2.53;;;2.33;;
7324;SDS011;3703;48.016;7.802;2022-10-16T09:06:16;5.27;;;2.20;;
7324;SDS011;3703;48.016;7.802;2022-10-16T09:09:17;2.53;;;2.30;;
7324;SDS011;3703;48.016;7.802;2022-10-16T09:12:29;4.17;;;2.20;;
7324;SDS011;3703;48.016;7.802;2022-10-16T09:15:25;4.03;;;2.13;;
7324;SDS011;3703;48.016;7.802;2022-10-16T09:18:21;2.53;;;2.33;;
7324;SDS011;3703;48.016;7.802;2022-10-16T09:21:18;2.67;;;2.47;;
7324;SDS011;3703;48.016;7.802;2022-10-16T09:24:09;3.43;;;2.27;;
7324;SDS011;3703;48.016;7.802;2022-10-16T09:27:01;3.53;;;2.00;;
7324;SDS011;3703;48.016;7.802;2022-10-16T09:29:48;4.60;;;1.93;;
7324;SDS011;3703;48.016;7.802;2022-10-16T09:32:36;4.77;;;2.03;;
7324;SDS011;3703;48.016;7.802;2022-10-16T09:35:31;3.37;;;1.80;;
7324;SDS011;3703;48.016;7.802;2022-10-16T09:38:25;3.90;;;1.87;;
7324;SDS011;3703;48.016;7.802;2022-10-16T09:41:15;3.23;;;1.83;;
7324;SDS011;3703;48.016;7.802;2022-10-16T09:44:06;4.30;;;1.67;;
7324;SDS011;3703;48.016;7.802;2022-10-16T09:47:12;4.23;;;1.67;;
7324;SDS011;3703;48.016;7.802;2022-10-16T09:50:03;2.30;;;1.80;;
7324;SDS011;3703;48.016;7.802;2022-10-16T09:53:14;1.73;;;1.47;;
7324;SDS011;3703;48.016;7.802;2022-10-16T09:56:04;2.37;;;1.50;;
7324;SDS011;3703;48.016;7.802;2022-10-16T09:58:53;1.63;;;1.30;;
7324;SDS011;3703;48.016;7.802;2022-10-16T10:01:42;4.07;;;1.47;;
7324;SDS011;3703;48.016;7.802;2022-10-16T10:04:37;1.67;;;1.57;;
7324;SDS011;3703;48.016;7.802;2022-10-16T10:07:38;1.50;;;1.40;;
7324;SDS011;3703;48.016;7.802;2022-10-16T10:10:33;1.80;;;1.47;;
7324;SDS011;3703;48.016;7.802;2022-10-16T10:13:28;2.00;;;1.50;;
7324;SDS011;3703;48.016;7.802;2022-10-16T10:16:23;1.87;;;1.30;;
7324;SDS011;3703;48.016;7.802;2022-10-16T10:19:13;2.47;;;1.23;;
7324;SDS011;3703;48.016;7.802;2022-10-16T10:22:11;2.20;;;1.33;;
7324;SDS011;3703;48.016;7.802;2022-10-16T10:25:12;2.67;;;1.37;;
7324;SDS011;3703;48.016;7.802;2022-10-16T10:31:38;5.37;;;1.70;;
7324;SDS011;3703;48.016;7.802;2022-10-16T10:34:37;2.93;;;1.60;;
7324;SDS011;3703;48.016;7.802;2022-10-16T10:37:50;1.77;;;1.37;;
7324;SDS011;3703;48.016;7.802;2022-10-16T10:40:59;1.30;;;1.20;;
7324;SDS011;3703;48.016;7.802;2022-10-16T10:44:21;1.53;;;1.43;;
7324;SDS011;3703;48.016;7.802;2022-10-16T10:47:27;2.50;;;1.37;;
7324;SDS011;3703;48.016;7.802;2022-10-16T10:50:26;2.17;;;1.40;;
7324;SDS011;3703;48.016;7.802;2022-10-16T10:53:31;4.10;;;1.60;;
7324;SDS011;3703;48.016;7.802;2022-10-16T10:56:37;1.53;;;1.40;;
7324;SDS011;3703;48.016;7.802;2022-10-16T10:59:40;1.70;;;1.40;;
7324;SDS011;3703;48.016;7.802;2022-10-16T11:02:47;1.30;;;1.20;;
7324;SDS011;3703;48.016;7.802;2022-10-16T11:05:40;2.47;;;1.53;;
7324;SDS011;3703;48.016;7.802;2022-10-16T11:08:32;3.20;;;1.80;;
7324;SDS011;3703;48.016;7.802;2022-10-16T11:11:23;2.10;;;1.50;;
7324;SDS011;3703;48.016;7.802;2022-10-16T11:14:18;3.67;;;1.30;;
7324;SDS011;3703;48.016;7.802;2022-10-16T11:17:11;3.03;;;1.70;;
7324;SDS011;3703;48.016;7.802;2022-10-16T11:20:05;2.57;;;2.10;;
7324;SDS011;3703;48.016;7.802;2022-10-16T11:23:02;5.30;;;2.80;;
7324;SDS011;3703;48.016;7.802;2022-10-16T11:25:59;7.20;;;3.53;;
7324;SDS011;3703;48.016;7.802;2022-10-16T11:28:52;4.70;;;2.50;;
7324;SDS011;3703;48.016;7.802;2022-10-16T11:31:44;2.33;;;1.40;;
7324;SDS011;3703;48.016;7.802;2022-10-16T11:34:38;3.00;;;1.67;;
7324;SDS011;3703;48.016;7.802;2022-10-16T11:37:36;1.87;;;1.60;;
7324;SDS011;3703;48.016;7.802;2022-10-16T11:40:28;2.10;;;1.27;;
7324;SDS011;3703;48.016;7.802;2022-10-16T11:43:20;1.87;;;1.60;;
7324;SDS011;3703;48.016;7.802;2022-10-16T11:46:13;1.70;;;1.60;;
7324;SDS011;3703;48.016;7.802;2022-10-16T11:49:09;0.93;;;0.93;;
7324;SDS011;3703;48.016;7.802;2022-10-16T11:52:03;2.00;;;1.70;;
7324;SDS011;3703;48.016;7.802;2022-10-16T11:55:00;1.70;;;1.60;;
7324;SDS011;3703;48.016;7.802;2022-10-16T11:58:00;1.83;;;1.20;;
7324;SDS011;3703;48.016;7.802;2022-10-16T12:00:54;5.43;;;1.13;;
7324;SDS011;3703;48.016;7.802;2022-10-16T12:03:48;2.60;;;1.30;;
7324;SDS011;3703;48.016;7.802;2022-10-16T12:06:52;3.27;;;1.30;;
7324;SDS011;3703;48.016;7.802;2022-10-16T12:09:46;1.33;;;1.20;;
7324;SDS011;3703;48.016;7.802;2022-10-16T12:12:37;1.17;;;1.10;;
7324;SDS011;3703;48.016;7.802;2022-10-16T12:15:27;3.57;;;1.30;;
7324;SDS011;3703;48.016;7.802;2022-10-16T12:18:20;1.40;;;1.30;;
7324;SDS011;3703;48.016;7.802;2022-10-16T12:21:10;1.53;;;1.30;;
7324;SDS011;3703;48.016;7.802;2022-10-16T12:24:03;3.20;;;1.40;;
7324;SDS011;3703;48.016;7.802;2022-10-16T12:26:51;2.60;;;1.53;;
7324;SDS011;3703;48.016;7.802;2022-10-16T12:29:40;4.63;;;2.03;;
7324;SDS011;3703;48.016;7.802;2022-10-16T12:32:31;4.27;;;1.60;;
7324;SDS011;3703;48.016;7.802;2022-10-16T12:35:21;3.53;;;1.50;;
7324;SDS011;3703;48.016;7.802;2022-10-16T12:38:15;4.27;;;1.70;;
7324;SDS011;3703;48.016;7.802;2022-10-16T12:41:08;3.10;;;1.70;;
7324;SDS011;3703;48.016;7.802;2022-10-16T12:43:56;1.60;;;1.50;;
7324;SDS011;3703;48.016;7.802;2022-10-16T12:46:46;1.83;;;1.33;;
7324;SDS011;3703;48.016;7.802;2022-10-16T12:49:36;4.07;;;1.63;;
7324;SDS011;3703;48.016;7.802;2022-10-16T12:52:35;1.60;;;1.43;;
7324;SDS011;3703;48.016;7.802;2022-10-16T12:55:24;1.33;;;1.23;;
7324;SDS011;3703;48.016;7.802;2022-10-16T12:58:21;1.97;;;1.50;;
7324;SDS011;3703;48.016;7.802;2022-10-16T13:01:27;4.20;;;1.50;;
7324;SDS011;3703;48.016;7.802;2022-10-16T13:07:57;1.87;;;1.40;;
7324;SDS011;3703;48.016;7.802;2022-10-16T13:11:01;2.13;;;1.53;;
7324;SDS011;3703;48.016;7.802;2022-10-16T13:14:14;2.73;;;1.53;;
7324;SDS011;3703;48.016;7.802;2022-10-16T13:17:41;2.77;;;1.50;;
7324;SDS011;3703;48.016;7.802;2022-10-16T13:20:43;2.00;;;1.20;;
7324;SDS011;3703;48.016;7.802;2022-10-16T13:23:52;2.33;;;1.40;;
7324;SDS011;3703;48.016;7.802;2022-10-16T13:26:49;1.57;;;1.40;;
7324;SDS011;3703;48.016;7.802;2022-10-16T13:29:45;2.17;;;1.50;;
7324;SDS011;3703;48.016;7.802;2022-10-16T13:32:43;2.67;;;2.00;;
7324;SDS011;3703;48.016;7.802;2022-10-16T13:35:34;2.20;;;1.80;;
7324;SDS011;3703;48.016;7.802;2022-10-16T13:38:23;3.57;;;1.50;;
7324;SDS011;3703;48.016;7.802;2022-10-16T13:41:14;1.63;;;1.30;;
7324;SDS011;3703;48.016;7.802;2022-10-16T13:44:04;2.27;;;1.47;;
7324;SDS011;3703;48.016;7.802;2022-10-16T13:47:00;3.33;;;1.50;;
7324;SDS011;3703;48.016;7.802;2022-10-16T13:49:58;3.20;;;1.50;;
7324;SDS011;3703;48.016;7.802;2022-10-16T13:52:47;2.53;;;1.40;;
7324;SDS011;3703;48.016;7.802;2022-10-16T13:55:35;5.10;;;1.83;;
7324;SDS011;3703;48.016;7.802;2022-10-16T13:58:23;2.63;;;1.40;;
7324;SDS011;3703;48.016;7.802;2022-10-16T14:01:15;2.37;;;1.30;;
7324;SDS011;3703;48.016;7.802;2022-10-16T14:04:08;1.27;;;1.17;;
7324;SDS011;3703;48.016;7.802;2022-10-16T14:06:58;2.33;;;1.50;;
7324;SDS011;3703;48.016;7.802;2022-10-16T14:09:47;2.13;;;1.50;;
7324;SDS011;3703;48.016;7.802;2022-10-16T14:12:36;4.50;;;1.23;;
7324;SDS011;3703;48.016;7.802;2022-10-16T14:15:24;1.50;;;1.20;;
7324;SDS011;3703;48.016;7.802;2022-10-16T14:18:13;1.93;;;1.20;;
7324;SDS011;3703;48.016;7.802;2022-10-16T14:21:11;1.60;;;1.50;;
7324;SDS011;3703;48.016;7.802;2022-10-16T14:24:10;2.53;;;1.63;;
7324;SDS011;3703;48.016;7.802;2022-10-16T14:26:58;2.67;;;1.47;;
7324;SDS011;3703;48.016;7.802;2022-10-16T14:29:47;2.17;;;1.20;;
7324;SDS011;3703;48.016;7.802;2022-10-16T14:32:35;2.77;;;1.33;;
7324;SDS011;3703;48.016;7.802;2022-10-16T14:35:24;2.53;;;1.50;;
7324;SDS011;3703;48.016;7.802;2022-10-16T14:38:18;1.60;;;1.50;;
7324;SDS011;3703;48.016;7.802;2022-10-16T14:41:07;1.67;;;1.33;;
7324;SDS011;3703;48.016;7.802;2022-10-16T14:43:56;2.90;;;1.50;;
7324;SDS011;3703;48.016;7.802;2022-10-16T14:46:48;2.17;;;1.40;;
7324;SDS011;3703;48.016;7.802;2022-10-16T14:49:35;3.03;;;1.87;;
7324;SDS011;3703;48.016;7.802;2022-10-16T14:52:23;2.27;;;1.70;;
7324;SDS011;3703;48.016;7.802;2022-10-16T14:55:13;1.37;;;1.27;;
7324;SDS011;3703;48.016;7.802;2022-10-16T14:58:01;1.50;;;1.40;;
7324;SDS011;3703;48.016;7.802;2022-10-16T15:00:49;1.50;;;1.40;;
7324;SDS011;3703;48.016;7.802;2022-10-16T15:03:36;3.70;;;1.40;;
7324;SDS011;3703;48.016;7.802;2022-10-16T15:06:24;1.70;;;1.33;;
7324;SDS011;3703;48.016;7.802;2022-10-16T15:09:12;1.40;;;1.30;;
7324;SDS011;3703;48.016;7.802;2022-10-16T15:12:01;1.80;;;1.37;;
7324;SDS011;3703;48.016;7.802;2022-10-16T15:14:48;1.60;;;1.47;;
7324;SDS011;3703;48.016;7.802;2022-10-16T15:17:36;1.63;;;1.40;;
7324;SDS011;3703;48.016;7.802;2022-10-16T15:20:24;1.63;;;1.53;;
7324;SDS011;3703;48.016;7.802;2022-10-16T15:23:13;2.40;;;1.67;;
7324;SDS011;3703;48.016;7.802;2022-10-16T15:26:03;2.10;;;1.53;;
7324;SDS011;3703;48.016;7.802;2022-10-16T15:28:53;1.93;;;1.40;;
7324;SDS011;3703;48.016;7.802;2022-10-16T15:31:41;2.73;;;1.43;;
7324;SDS011;3703;48.016;7.802;2022-10-16T15:34:29;2.27;;;1.50;;
7324;SDS011;3703;48.016;7.802;2022-10-16T15:37:16;2.03;;;1.77;;
7324;SDS011;3703;48.016;7.802;2022-10-16T15:40:05;2.00;;;1.70;;
7324;SDS011;3703;48.016;7.802;2022-10-16T15:42:54;4.23;;;1.80;;
7324;SDS011;3703;48.016;7.802;2022-10-16T15:45:43;2.00;;;1.80;;
7324;SDS011;3703;48.016;7.802;2022-10-16T15:48:31;3.40;;;1.70;;
7324;SDS011;3703;48.016;7.802;2022-10-16T15:51:19;4.10;;;1.97;;
7324;SDS011;3703;48.016;7.802;2022-10-16T15:54:07;2.17;;;1.80;;
7324;SDS011;3703;48.016;7.802;2022-10-16T15:56:55;2.33;;;2.00;;
7324;SDS011;3703;48.016;7.802;2022-10-16T15:59:43;3.33;;;1.90;;
7324;SDS011;3703;48.016;7.802;2022-10-16T16:02:32;2.10;;;1.67;;
7324;SDS011;3703;48.016;7.802;2022-10-16T16:05:20;3.37;;;1.83;;
7324;SDS011;3703;48.016;7.802;2022-10-16T16:08:09;3.53;;;1.90;;
7324;SDS011;3703;48.016;7.802;2022-10-16T16:10:57;4.43;;;1.80;;
7324;SDS011;3703;48.016;7.802;2022-10-16T16:13:45;2.53;;;1.57;;
7324;SDS011;3703;48.016;7.802;2022-10-16T16:16:33;3.60;;;1.67;;
7324;SDS011;3703;48.016;7.802;2022-10-16T16:19:24;3.07;;;2.30;;
7324;SDS011;3703;48.016;7.802;2022-10-16T16:22:12;3.07;;;2.60;;
7324;SDS011;3703;48.016;7.802;2022-10-16T16:25:00;2.70;;;2.47;;
7324;SDS011;3703;48.016;7.802;2022-10-16T16:27:47;5.40;;;2.70;;
7324;SDS011;3703;48.016;7.802;2022-10-16T16:30:35;7.40;;;2.87;;
7324;SDS011;3703;48.016;7.802;2022-10-16T16:33:23;4.53;;;2.53;;
7324;SDS011;3703;48.016;7.802;2022-10-16T16:36:12;3.53;;;2.30;;
7324;SDS011;3703;48.016;7.802;2022-10-16T16:38:59;4.17;;;3.03;;
7324;SDS011;3703;48.016;7.802;2022-10-16T16:41:47;4.47;;;3.00;;
7324;SDS011;3703;48.016;7.802;2022-10-16T16:44:35;3.77;;;2.87;;
7324;SDS011;3703;48.016;7.802;2022-10-16T16:47:23;2.87;;;2.67;;
7324;SDS011;3703;48.016;7.802;2022-10-16T16:50:11;5.50;;;2.70;;
7324;SDS011;3703;48.016;7.802;2022-10-16T16:53:00;6.23;;;3.00;;
7324;SDS011;3703;48.016;7.802;2022-10-16T16:55:47;7.63;;;3.73;;
7324;SDS011;3703;48.016;7.802;2022-10-16T16:58:35;6.20;;;3.60;;
7324;SDS011;3703;48.016;7.802;2022-10-16T17:01:24;5.47;;;3.40;;
7324;SDS011;3703;48.016;7.802;2022-10-16T17:04:13;9.87;;;3.60;;
7324;SDS011;3703;48.016;7.802;2022-10-16T17:07:01;5.53;;;3.40;;
7324;SDS011;3703;48.016;7.802;2022-10-16T17:09:50;5.63;;;3.20;;
7324;SDS011;3703;48.016;7.802;2022-10-16T17:12:38;5.57;;;3.47;;
7324;SDS011;3703;48.016;7.802;2022-10-16T17:15:26;7.20;;;4.17;;
7324;SDS011;3703;48.016;7.802;2022-10-16T17:18:13;7.20;;;3.90;;
7324;SDS011;3703;48.016;7.802;2022-10-16T17:21:02;6.90;;;3.50;;
7324;SDS011;3703;48.016;7.802;2022-10-16T17:23:52;5.73;;;3.07;;
7324;SDS011;3703;48.016;7.802;2022-10-16T17:26:41;5.67;;;3.70;;
7324;SDS011;3703;48.016;7.802;2022-10-16T17:29:29;8.37;;;3.60;;
7324;SDS011;3703;48.016;7.802;2022-10-16T17:32:16;5.90;;;3.50;;
7324;SDS011;3703;48.016;7.802;2022-10-16T17:35:05;4.93;;;3.23;;
7324;SDS011;3703;48.016;7.802;2022-10-16T17:37:53;7.03;;;3.90;;
7324;SDS011;3703;48.016;7.802;2022-10-16T17:40:41;6.13;;;3.40;;
7324;SDS011;3703;48.016;7.802;2022-10-16T17:43:30;10.80;;;3.77;;
7324;SDS011;3703;48.016;7.802;2022-10-16T17:46:19;7.93;;;3.90;;
7324;SDS011;3703;48.016;7.802;2022-10-16T17:49:08;7.87;;;3.40;;
7324;SDS011;3703;48.016;7.802;2022-10-16T17:51:56;5.87;;;4.10;;
7324;SDS011;3703;48.016;7.802;2022-10-16T17:54:48;8.13;;;3.83;;